Time;durP1;ratioP1;P1;durP2;ratioP2;P2;SDS_P1;SDS_P2;PMS_P1;PMS_P2;Temp;Humidity;BMP_temperature;BMP_pressure;BME280_temperature;BME280_humidity;BME280_pressure;Samples;Min_cycle;Max_cycle;Signal;HPM_P1;HPM_P2
2021/06/08 00:04:55;;;;;;;32.10;28.70;;;19.00;99.90;;;;;;10503223;28;20594;-78
2021/06/08 00:09:57;;;;;;;36.57;32.73;;;18.90;99.90;;;;;;10501817;28;20708;-78
2021/06/08 00:15:00;;;;;;;37.03;31.90;;;19.00;99.90;;;;;;10504210;28;20220;-78
2021/06/08 00:20:04;;;;;;;37.70;32.23;;;19.00;99.90;;;;;;10503236;28;20228;-78
2021/06/08 00:25:07;;;;;;;33.90;30.40;;;18.90;99.90;;;;;;10501704;28;20239;-78
2021/06/08 00:30:11;;;;;;;36.83;33.03;;;18.90;99.90;;;;;;10496590;28;20197;-77
2021/06/08 00:35:13;;;;;;;33.67;30.10;;;19.00;99.90;;;;;;10496444;28;20243;-77
2021/06/08 00:40:15;;;;;;;34.03;30.40;;;18.90;99.90;;;;;;10501218;28;20330;-79
2021/06/08 00:45:18;;;;;;;38.33;32.27;;;19.00;99.90;;;;;;10500739;28;20240;-79
2021/06/08 00:50:20;;;;;;;35.77;31.50;;;18.90;99.90;;;;;;10500730;28;20212;-79
2021/06/08 00:55:22;;;;;;;40.13;31.40;;;18.90;99.90;;;;;;10501608;28;20225;-78
2021/06/08 01:00:25;;;;;;;33.80;30.20;;;18.90;99.90;;;;;;10499472;28;20216;-78
2021/06/08 01:05:27;;;;;;;35.83;31.93;;;18.90;99.90;;;;;;10498134;28;20311;-78
2021/06/08 01:10:28;;;;;;;35.13;31.03;;;19.00;99.90;;;;;;10503518;28;20224;-78
2021/06/08 01:15:32;;;;;;;32.90;29.40;;;19.00;99.90;;;;;;10495952;28;20311;-78
2021/06/08 01:20:34;;;;;;;32.80;29.23;;;18.90;99.90;;;;;;10506308;28;20271;-79
2021/06/08 01:25:37;;;;;;;33.63;30.13;;;18.90;99.90;;;;;;10504486;28;20217;-79
2021/06/08 01:30:39;;;;;;;37.03;30.80;;;18.90;99.90;;;;;;10504962;28;20232;-80
2021/06/08 01:35:42;;;;;;;34.93;31.23;;;18.90;99.90;;;;;;10504903;28;20213;-78
2021/06/08 01:40:49;;;;;;;33.10;29.63;;;18.90;99.90;;;;;;10505432;28;20217;-79
2021/06/08 01:45:51;;;;;;;34.83;30.93;;;18.90;99.90;;;;;;10505091;28;20220;-79
2021/06/08 01:50:57;;;;;;;33.87;30.00;;;19.00;99.90;;;;;;10505869;28;20292;-80
2021/06/08 01:56:06;;;;;;;33.97;30.47;;;18.90;99.90;;;;;;10504274;28;20303;-80
2021/06/08 02:01:13;;;;;;;35.53;31.93;;;18.90;99.90;;;;;;10505419;28;20619;-80
2021/06/08 02:06:22;;;;;;;34.70;30.97;;;18.90;99.90;;;;;;10500107;28;20232;-79
2021/06/08 02:11:36;;;;;;;37.67;33.40;;;19.00;99.90;;;;;;10497766;28;20244;-79
2021/06/08 02:16:44;;;;;;;34.70;31.17;;;18.90;99.90;;;;;;10498408;28;20365;-79
2021/06/08 02:21:48;;;;;;;36.87;32.97;;;18.90;99.90;;;;;;10499448;28;20247;-79
2021/06/08 02:26:56;;;;;;;34.60;30.90;;;19.00;99.90;;;;;;10497067;28;20200;-80
2021/06/08 02:32:00;;;;;;;36.80;32.50;;;18.90;99.90;;;;;;10493909;28;20229;-79
2021/06/08 02:37:02;;;;;;;35.00;31.50;;;18.90;99.90;;;;;;10495311;28;20227;-80
2021/06/08 02:42:07;;;;;;;35.63;31.87;;;18.90;99.90;;;;;;10483964;28;20213;-79
2021/06/08 02:47:09;;;;;;;36.93;33.13;;;18.90;99.90;;;;;;10489056;28;20238;-81
2021/06/08 02:52:12;;;;;;;37.20;33.30;;;18.90;99.90;;;;;;10485603;28;20228;-79
2021/06/08 02:57:16;;;;;;;37.00;33.20;;;18.90;99.90;;;;;;10499171;28;20287;-80
2021/06/08 03:02:19;;;;;;;35.17;31.50;;;18.90;99.90;;;;;;10499099;28;20225;-80
2021/06/08 03:07:23;;;;;;;38.43;34.57;;;18.90;99.90;;;;;;10477553;28;20204;-79
2021/06/08 03:12:31;;;;;;;36.00;32.17;;;18.90;99.90;;;;;;10484129;28;20225;-80
2021/06/08 03:17:37;;;;;;;38.57;34.20;;;18.90;99.90;;;;;;10496409;28;20224;-79
2021/06/08 03:22:42;;;;;;;38.27;34.23;;;18.90;99.90;;;;;;10497502;28;20217;-79
2021/06/08 03:27:46;;;;;;;40.33;33.23;;;19.00;99.90;;;;;;10497091;28;20710;-78
2021/06/08 03:32:50;;;;;;;37.50;33.70;;;18.90;99.90;;;;;;10494166;28;20768;-78
2021/06/08 03:37:53;;;;;;;35.90;32.20;;;18.90;99.90;;;;;;10475388;28;20189;-80
2021/06/08 03:42:57;;;;;;;36.70;32.90;;;18.90;99.90;;;;;;10488851;28;20223;-76
2021/06/08 03:47:59;;;;;;;36.60;32.80;;;19.00;99.90;;;;;;10479435;28;20227;-81
2021/06/08 03:53:02;;;;;;;35.97;32.37;;;19.00;99.90;;;;;;10461714;28;20659;-80
2021/06/08 03:58:13;;;;;;;35.57;31.97;;;19.00;99.90;;;;;;10469957;28;20229;-78
2021/06/08 04:03:17;;;;;;;35.70;32.20;;;18.90;99.90;;;;;;10481148;28;20633;-78
2021/06/08 04:08:19;;;;;;;38.13;34.17;;;18.90;99.90;;;;;;10473201;28;20205;-76
2021/06/08 04:13:22;;;;;;;36.43;32.73;;;18.90;99.90;;;;;;10460907;28;20602;-77
2021/06/08 04:18:24;;;;;;;37.07;33.23;;;18.90;99.90;;;;;;10488800;28;20782;-80
2021/06/08 04:23:26;;;;;;;36.30;32.00;;;19.00;99.90;;;;;;10498199;22;20235;-83
2021/06/08 04:28:29;;;;;;;32.40;29.07;;;19.00;99.90;;;;;;10502772;28;20209;-80
2021/06/08 04:33:31;;;;;;;36.50;31.07;;;19.00;99.90;;;;;;10512971;28;20276;-82
2021/06/08 04:38:32;;;;;;;32.43;29.23;;;19.00;99.90;;;;;;10528846;28;20208;-81
2021/06/08 04:43:36;;;;;;;32.03;28.87;;;19.00;99.90;;;;;;10517219;28;20240;-81
2021/06/08 04:48:38;;;;;;;34.63;31.00;;;19.00;99.90;;;;;;10534167;28;20652;-81
2021/06/08 04:53:41;;;;;;;32.30;29.00;;;19.00;99.90;;;;;;10522767;28;20262;-82
2021/06/08 04:58:45;;;;;;;33.73;30.20;;;19.00;99.90;;;;;;10547446;28;20294;-81
2021/06/08 05:03:51;;;;;;;34.50;30.80;;;19.00;99.90;;;;;;10536095;28;20276;-81
2021/06/08 05:08:56;;;;;;;33.97;30.57;;;19.00;99.90;;;;;;10521568;28;20232;-81
2021/06/08 05:14:14;;;;;;;32.70;29.60;;;19.10;99.90;;;;;;10531863;28;20224;-81
2021/06/08 05:19:17;;;;;;;31.03;27.93;;;19.10;99.90;;;;;;10551589;28;20203;-81
2021/06/08 05:24:20;;;;;;;31.13;28.07;;;19.20;99.90;;;;;;10543411;28;20239;-81
2021/06/08 05:29:25;;;;;;;31.17;28.10;;;19.20;99.90;;;;;;10540173;28;20669;-81
2021/06/08 05:34:27;;;;;;;32.80;29.60;;;19.20;99.90;;;;;;10518769;28;20215;-81
2021/06/08 05:39:36;;;;;;;33.60;30.30;;;19.20;99.90;;;;;;10541076;28;20192;-81
2021/06/08 05:44:39;;;;;;;34.93;31.33;;;19.20;99.90;;;;;;10535573;28;20265;-81
2021/06/08 05:49:41;;;;;;;32.37;29.10;;;19.30;99.90;;;;;;10538903;28;20235;-80
2021/06/08 05:54:43;;;;;;;28.73;25.83;;;19.30;99.90;;;;;;10509126;28;20266;-81
2021/06/08 05:59:46;;;;;;;31.70;28.63;;;19.30;99.90;;;;;;10526345;28;20235;-81
2021/06/08 06:04:48;;;;;;;33.27;29.77;;;19.30;99.90;;;;;;10505365;28;20580;-81
2021/06/08 06:09:50;;;;;;;33.53;29.97;;;19.30;99.90;;;;;;10532992;28;20203;-81
2021/06/08 06:15:03;;;;;;;32.23;29.20;;;19.40;99.90;;;;;;10507809;28;20318;-81
2021/06/08 06:20:07;;;;;;;30.27;27.17;;;19.40;99.90;;;;;;10504858;28;20623;-81
2021/06/08 06:25:11;;;;;;;31.80;28.70;;;19.40;99.90;;;;;;10530794;28;20310;-81
2021/06/08 06:30:16;;;;;;;32.80;29.50;;;19.40;99.90;;;;;;10531491;28;20295;-81
2021/06/08 06:35:18;;;;;;;33.27;29.83;;;19.50;99.90;;;;;;10516371;28;20220;-81
2021/06/08 06:40:26;;;;;;;29.23;26.47;;;19.50;99.90;;;;;;10533600;28;20200;-81
2021/06/08 06:45:31;;;;;;;35.47;28.50;;;19.50;99.90;;;;;;10524492;28;20214;-81
2021/06/08 06:50:36;;;;;;;35.43;31.77;;;19.50;99.90;;;;;;10513808;28;20230;-81
2021/06/08 06:55:39;;;;;;;31.33;27.90;;;19.60;99.90;;;;;;10535452;28;20230;-81
2021/06/08 07:00:42;;;;;;;30.07;27.13;;;19.60;99.90;;;;;;10533690;28;20659;-81
2021/06/08 07:05:48;;;;;;;32.73;29.53;;;19.60;99.90;;;;;;10531268;28;20307;-81
2021/06/08 07:10:50;;;;;;;31.10;27.97;;;19.70;99.90;;;;;;10524157;28;20208;-81
2021/06/08 07:15:56;;;;;;;34.73;31.13;;;19.80;99.90;;;;;;10530394;28;20251;-81
2021/06/08 07:21:01;;;;;;;33.80;30.43;;;19.80;99.90;;;;;;10492886;28;20208;-81
2021/06/08 07:26:03;;;;;;;29.17;26.37;;;19.90;99.90;;;;;;10527280;28;20219;-81
2021/06/08 07:31:06;;;;;;;32.23;28.97;;;19.90;99.90;;;;;;10522275;28;20268;-81
2021/06/08 07:36:15;;;;;;;32.23;28.70;;;20.00;99.90;;;;;;10549012;28;20239;-81
2021/06/08 07:41:23;;;;;;;30.57;27.57;;;20.10;99.90;;;;;;10532614;28;20200;-81
2021/06/08 07:46:27;;;;;;;31.43;28.17;;;20.20;99.90;;;;;;10518006;28;20323;-81
2021/06/08 07:51:30;;;;;;;32.47;29.07;;;20.30;99.90;;;;;;10507205;28;20205;-81
2021/06/08 07:56:31;;;;;;;32.47;28.97;;;20.30;99.90;;;;;;10533742;28;20280;-81
2021/06/08 08:01:34;;;;;;;29.50;26.60;;;20.30;99.90;;;;;;10526529;28;20207;-81
2021/06/08 08:06:37;;;;;;;29.03;26.13;;;20.30;99.90;;;;;;10527944;28;20235;-82
2021/06/08 08:11:41;;;;;;;32.23;29.20;;;20.20;99.90;;;;;;10513532;28;20207;-81
2021/06/08 08:16:47;;;;;;;32.37;29.07;;;20.20;99.90;;;;;;10528005;28;20327;-81
2021/06/08 08:21:50;;;;;;;34.10;30.53;;;20.10;99.90;;;;;;10540526;28;20192;-81
2021/06/08 08:26:51;;;;;;;31.53;28.33;;;20.00;99.90;;;;;;10544664;28;20208;-81
2021/06/08 08:31:54;;;;;;;33.53;30.13;;;20.00;99.90;;;;;;10516722;28;20889;-81
2021/06/08 08:36:56;;;;;;;34.80;31.30;;;20.00;99.90;;;;;;10523531;28;20207;-81
2021/06/08 08:41:59;;;;;;;35.13;31.83;;;20.10;99.90;;;;;;10539872;28;20257;-81
2021/06/08 08:47:02;;;;;;;34.93;31.70;;;20.20;99.90;;;;;;10517989;28;20649;-81
2021/06/08 08:52:05;;;;;;;34.77;31.57;;;20.50;99.90;;;;;;10525905;28;20254;-81
2021/06/08 08:57:07;;;;;;;33.93;30.73;;;20.70;99.90;;;;;;10535519;28;20211;-81
2021/06/08 09:02:11;;;;;;;34.80;31.50;;;20.90;99.90;;;;;;10525219;28;20249;-81
2021/06/08 09:07:13;;;;;;;32.23;29.33;;;21.20;99.90;;;;;;10542417;28;20226;-81
2021/06/08 09:12:15;;;;;;;29.80;27.00;;;21.30;99.90;;;;;;10553527;28;20726;-81
2021/06/08 09:17:21;;;;;;;32.23;29.10;;;21.30;99.90;;;;;;10554173;28;20255;-81
2021/06/08 09:22:23;;;;;;;32.30;29.10;;;21.40;99.90;;;;;;10543005;28;20603;-81
2021/06/08 09:27:28;;;;;;;30.03;26.97;;;21.40;99.90;;;;;;10526372;28;20207;-81
2021/06/08 09:32:31;;;;;;;32.17;29.00;;;21.30;99.90;;;;;;10542693;28;20230;-81
2021/06/08 09:37:35;;;;;;;33.63;30.40;;;21.40;99.90;;;;;;10534658;28;20226;-81
2021/06/08 09:42:36;;;;;;;32.53;29.10;;;21.50;99.90;;;;;;10541361;28;20222;-81
2021/06/08 09:47:40;;;;;;;32.97;29.83;;;21.90;99.90;;;;;;10516876;28;20656;-81
2021/06/08 09:52:42;;;;;;;33.10;29.70;;;22.00;99.90;;;;;;10517024;28;20227;-81
2021/06/08 09:57:44;;;;;;;33.53;30.23;;;22.00;99.90;;;;;;10500662;28;20637;-81
2021/06/08 10:02:48;;;;;;;29.47;26.77;;;22.40;99.90;;;;;;10518966;28;20658;-81
2021/06/08 10:07:51;;;;;;;31.20;28.13;;;22.80;99.90;;;;;;10522126;28;20665;-81
2021/06/08 10:12:55;;;;;;;30.93;28.03;;;23.00;99.90;;;;;;10508585;28;20235;-81
2021/06/08 10:18:00;;;;;;;30.00;26.87;;;23.10;99.90;;;;;;10514029;28;20630;-81
2021/06/08 10:23:22;;;;;;;30.23;27.40;;;23.20;99.90;;;;;;10558000;22;20234;-80
2021/06/08 10:28:27;;;;;;;31.67;28.70;;;23.50;99.90;;;;;;10541915;28;20230;-78
2021/06/08 10:33:31;;;;;;;28.60;26.00;;;23.60;99.90;;;;;;10531649;28;20218;-79
2021/06/08 10:38:33;;;;;;;26.80;24.20;;;23.70;99.90;;;;;;10570893;28;20258;-81
2021/06/08 10:43:37;;;;;;;27.23;24.20;;;23.50;99.90;;;;;;10588076;27;20249;-79
2021/06/08 10:48:47;;;;;;;27.93;25.53;;;23.30;99.90;;;;;;10578425;28;20195;-77
2021/06/08 10:53:50;;;;;;;27.70;25.20;;;23.40;99.90;;;;;;10575403;28;20231;-79
2021/06/08 10:58:54;;;;;;;28.33;25.83;;;23.50;99.90;;;;;;10578349;28;20195;-79
2021/06/08 11:03:59;;;;;;;28.17;25.70;;;23.70;99.90;;;;;;10577256;28;20676;-77
2021/06/08 11:09:03;;;;;;;24.20;22.10;;;24.00;99.90;;;;;;10576312;28;20199;-80
2021/06/08 11:14:05;;;;;;;24.13;22.07;;;24.00;99.90;;;;;;10581579;28;20248;-79
2021/06/08 11:19:08;;;;;;;27.80;25.37;;;24.00;99.90;;;;;;10576656;28;20226;-77
2021/06/08 11:24:34;;;;;;;25.47;23.17;;;24.00;99.90;;;;;;10578669;28;20223;-80
2021/06/08 11:29:45;;;;;;;23.63;21.63;;;23.90;99.90;;;;;;10577281;28;20282;-79
2021/06/08 11:35:07;;;;;;;27.43;24.87;;;23.90;99.90;;;;;;10587083;28;20656;-80
2021/06/08 11:40:54;;;;;;;27.87;25.27;;;23.90;99.90;;;;;;10552694;28;20237;-80
2021/06/08 11:46:03;;;;;;;26.60;24.20;;;23.90;99.90;;;;;;10568405;28;20216;-78
2021/06/08 11:51:33;;;;;;;28.07;25.70;;;23.70;99.90;;;;;;10566595;28;20207;-80
2021/06/08 11:56:53;;;;;;;27.87;25.17;;;23.60;99.90;;;;;;10585127;28;20686;-79
2021/06/08 12:01:58;;;;;;;26.17;23.87;;;23.60;99.90;;;;;;10567100;28;20227;-80
2021/06/08 12:07:10;;;;;;;27.30;25.00;;;23.70;99.90;;;;;;10584301;28;20215;-79
2021/06/08 12:12:14;;;;;;;27.50;25.20;;;23.90;99.90;;;;;;10578039;28;20213;-78
2021/06/08 12:17:16;;;;;;;24.50;22.33;;;24.20;99.90;;;;;;10584036;28;20222;-78
2021/06/08 12:22:22;;;;;;;27.47;24.97;;;24.40;99.90;;;;;;10584145;28;20192;-78
2021/06/08 12:27:38;;;;;;;23.07;21.00;;;24.60;99.90;;;;;;10582285;28;20293;-78
2021/06/08 12:32:41;;;;;;;21.97;20.07;;;24.80;99.90;;;;;;10583558;28;20218;-77
2021/06/08 12:37:44;;;;;;;24.00;22.00;;;24.80;99.90;;;;;;10581753;28;20229;-80
2021/06/08 12:42:46;;;;;;;23.97;21.73;;;24.90;99.90;;;;;;10582256;28;20268;-78
2021/06/08 12:47:48;;;;;;;22.00;20.20;;;24.80;99.90;;;;;;10583456;28;20639;-79
2021/06/08 12:52:59;;;;;;;22.90;20.93;;;24.70;99.90;;;;;;10581879;28;20271;-79
2021/06/08 12:58:04;;;;;;;23.30;21.37;;;24.40;99.90;;;;;;10583694;28;20213;-79
2021/06/08 13:03:06;;;;;;;23.27;21.27;;;24.20;99.90;;;;;;10576078;28;20219;-79
2021/06/08 13:08:09;;;;;;;23.80;21.80;;;24.10;99.90;;;;;;10581577;28;20203;-79
2021/06/08 13:13:13;;;;;;;23.20;21.30;;;23.90;99.90;;;;;;10571223;28;20223;-79
2021/06/08 13:18:17;;;;;;;22.87;20.70;;;23.80;99.90;;;;;;10585666;28;20195;-79
2021/06/08 13:23:21;;;;;;;23.40;21.40;;;23.70;99.90;;;;;;10571358;28;20577;-79
2021/06/08 13:28:30;;;;;;;23.03;21.13;;;23.60;99.90;;;;;;10583829;28;20573;-79
2021/06/08 13:33:34;;;;;;;23.50;21.50;;;23.60;99.90;;;;;;10565186;28;20223;-79
2021/06/08 13:38:38;;;;;;;20.77;19.07;;;23.60;99.90;;;;;;10582353;28;20229;-79
2021/06/08 13:43:43;;;;;;;22.90;21.00;;;23.60;99.90;;;;;;10575621;28;20686;-79
2021/06/08 13:48:55;;;;;;;23.27;21.13;;;23.60;99.90;;;;;;10582207;28;20286;-79
2021/06/08 13:54:10;;;;;;;21.10;19.20;;;23.70;99.90;;;;;;10582466;28;20706;-79
2021/06/08 14:04:44;;;;;;;21.30;19.40;;;23.70;99.90;;;;;;10582021;28;20564;-79
2021/06/08 14:09:48;;;;;;;22.33;20.30;;;23.70;99.90;;;;;;10579745;28;20673;-79
2021/06/08 14:14:50;;;;;;;20.00;18.40;;;23.60;99.90;;;;;;10572959;28;20230;-79
2021/06/08 14:19:53;;;;;;;21.83;20.03;;;23.50;99.90;;;;;;10581369;28;20642;-79
2021/06/08 14:24:56;;;;;;;21.50;19.80;;;23.50;99.90;;;;;;10581412;28;20759;-79
2021/06/08 14:29:58;;;;;;;21.00;19.10;;;23.60;99.90;;;;;;10581467;28;20203;-79
2021/06/08 14:35:00;;;;;;;23.53;21.17;;;23.60;99.90;;;;;;10581876;28;20617;-79
2021/06/08 14:40:05;;;;;;;23.97;21.83;;;23.40;99.90;;;;;;10574367;28;20712;-79
2021/06/08 14:45:07;;;;;;;22.00;20.20;;;23.30;99.90;;;;;;10576173;28;20306;-79
2021/06/08 14:50:10;;;;;;;22.77;21.00;;;23.20;99.90;;;;;;10559778;28;20207;-79
2021/06/08 14:55:14;;;;;;;23.97;21.87;;;23.00;99.90;;;;;;10579927;28;20964;-79
2021/06/08 15:00:17;;;;;;;22.30;20.50;;;22.90;99.90;;;;;;10578342;28;20207;-79
2021/06/08 15:05:18;;;;;;;22.93;20.97;;;22.80;99.90;;;;;;10577764;28;20215;-79
2021/06/08 15:10:22;;;;;;;20.40;18.70;;;22.80;99.90;;;;;;10580940;28;20206;-79
2021/06/08 15:15:24;;;;;;;19.53;18.07;;;22.80;99.90;;;;;;10580342;28;20263;-79
2021/06/08 15:20:26;;;;;;;20.20;18.60;;;22.90;99.90;;;;;;10581870;28;20231;-80
2021/06/08 15:25:30;;;;;;;21.30;19.40;;;22.90;99.90;;;;;;10584509;28;20315;-80
2021/06/08 15:30:32;;;;;;;19.20;17.70;;;22.90;99.90;;;;;;10590215;28;20250;-80
2021/06/08 15:35:34;;;;;;;18.63;17.13;;;23.00;99.90;;;;;;10570914;28;20322;-80
2021/06/08 15:40:37;;;;;;;20.20;18.50;;;23.10;99.90;;;;;;10588522;28;20277;-80
2021/06/08 15:45:39;;;;;;;19.00;17.40;;;23.30;99.90;;;;;;10587794;28;20215;-79
2021/06/08 15:50:41;;;;;;;18.00;16.40;;;23.70;99.90;;;;;;10588123;28;20290;-79
2021/06/08 15:55:44;;;;;;;18.30;16.60;;;24.10;99.90;;;;;;10584654;28;20230;-78
2021/06/08 16:00:46;;;;;;;18.77;17.27;;;24.40;99.90;;;;;;10578496;28;20233;-78
2021/06/08 16:05:48;;;;;;;14.90;13.80;;;24.60;99.90;;;;;;10584783;28;20244;-78
2021/06/08 16:10:51;;;;;;;18.50;16.50;;;24.80;99.90;;;;;;10587178;28;20693;-78
2021/06/08 16:15:52;;;;;;;18.70;17.03;;;24.90;99.90;;;;;;10586841;28;20238;-79
2021/06/08 16:20:56;;;;;;;17.33;15.80;;;24.90;99.90;;;;;;10589012;28;20238;-79
2021/06/08 16:25:59;;;;;;;17.77;16.37;;;24.80;99.90;;;;;;10551556;22;20225;-78
2021/06/08 16:31:01;;;;;;;17.87;16.20;;;24.70;99.90;;;;;;10500243;28;20635;-79
2021/06/08 16:36:02;;;;;;;14.93;13.83;;;24.40;99.90;;;;;;10528815;28;20247;-79
2021/06/08 16:41:06;;;;;;;14.73;13.63;;;24.20;99.90;;;;;;10539966;28;20246;-78
2021/06/08 16:46:10;;;;;;;20.60;18.60;;;23.80;99.90;;;;;;10539690;28;20240;-78
2021/06/08 16:51:15;;;;;;;21.77;19.90;;;23.50;99.90;;;;;;10534777;28;20210;-80
2021/06/08 16:56:19;;;;;;;23.17;20.80;;;23.10;99.90;;;;;;10543446;28;20243;-78
2021/06/08 17:01:21;;;;;;;23.60;21.60;;;22.80;99.90;;;;;;10534568;28;20214;-78
2021/06/08 17:06:22;;;;;;;23.50;21.50;;;22.60;99.90;;;;;;10545473;28;20256;-78
2021/06/08 17:11:25;;;;;;;23.23;21.33;;;22.40;99.90;;;;;;10547687;28;20287;-78
2021/06/08 17:16:27;;;;;;;23.30;21.30;;;22.30;99.90;;;;;;10543161;28;20233;-78
2021/06/08 17:21:29;;;;;;;21.80;20.00;;;22.10;99.90;;;;;;10503911;28;20204;-78
2021/06/08 17:26:36;;;;;;;23.77;21.67;;;22.00;99.90;;;;;;10529373;28;20230;-78
2021/06/08 17:31:37;;;;;;;21.43;19.63;;;21.90;99.90;;;;;;10544275;28;20203;-80
2021/06/08 17:36:39;;;;;;;21.60;19.80;;;21.80;99.90;;;;;;10516751;28;20695;-79
2021/06/08 17:41:42;;;;;;;22.23;20.33;;;21.70;99.90;;;;;;10543710;28;20333;-79
2021/06/08 17:46:44;;;;;;;23.57;21.23;;;21.60;99.90;;;;;;10531903;28;20722;-79
2021/06/08 17:51:45;;;;;;;22.53;20.43;;;21.50;99.90;;;;;;10525378;28;20271;-80
2021/06/08 17:56:48;;;;;;;22.97;21.00;;;21.40;99.90;;;;;;10522035;28;20269;-80
2021/06/08 18:01:50;;;;;;;23.33;21.40;;;21.30;99.90;;;;;;10536252;28;20291;-81
2021/06/08 18:06:53;;;;;;;20.90;19.20;;;21.20;99.90;;;;;;10516498;28;20753;-81
2021/06/08 18:11:56;;;;;;;22.80;20.80;;;21.10;99.90;;;;;;10511853;28;20245;-81
2021/06/08 18:16:59;;;;;;;22.70;20.70;;;21.00;99.90;;;;;;10504533;28;20224;-80
2021/06/08 18:22:05;;;;;;;22.27;20.37;;;20.90;99.90;;;;;;10528617;28;20200;-80
2021/06/08 18:27:11;;;;;;;23.17;21.17;;;20.80;99.90;;;;;;10530758;28;20310;-80
2021/06/08 18:32:13;;;;;;;24.27;22.03;;;20.70;99.90;;;;;;10522886;28;20223;-80
2021/06/08 18:37:15;;;;;;;23.90;21.90;;;20.60;99.90;;;;;;10517321;28;20714;-80
2021/06/08 18:42:18;;;;;;;25.63;23.47;;;20.50;99.90;;;;;;10533501;28;20290;-80
2021/06/08 18:47:19;;;;;;;25.23;22.97;;;20.30;99.90;;;;;;10519904;28;20216;-80
2021/06/08 18:52:21;;;;;;;26.20;23.87;;;20.20;99.90;;;;;;10519068;28;20231;-80
2021/06/08 18:57:24;;;;;;;28.63;26.03;;;20.10;99.90;;;;;;10533911;28;20234;-79
2021/06/08 19:02:26;;;;;;;24.27;22.17;;;20.00;99.90;;;;;;10524872;28;20203;-79
2021/06/08 19:07:27;;;;;;;28.07;25.57;;;19.90;99.90;;;;;;10533732;28;20299;-79
2021/06/08 19:12:30;;;;;;;28.80;26.20;;;19.80;99.90;;;;;;10513100;28;20200;-80
2021/06/08 19:17:33;;;;;;;27.13;24.67;;;19.80;99.90;;;;;;10529056;28;20246;-79
2021/06/08 19:22:35;;;;;;;28.17;25.70;;;19.70;99.90;;;;;;10525071;28;20206;-80
2021/06/08 19:27:39;;;;;;;27.03;24.63;;;19.60;99.90;;;;;;10518991;28;20212;-80
2021/06/08 19:32:40;;;;;;;29.27;26.67;;;19.60;99.90;;;;;;10527761;28;20639;-79
2021/06/08 19:37:42;;;;;;;27.07;24.63;;;19.50;99.90;;;;;;10528267;28;20200;-79
2021/06/08 19:42:45;;;;;;;29.03;26.43;;;19.50;99.90;;;;;;10517983;28;20326;-79
2021/06/08 19:47:48;;;;;;;29.37;26.83;;;19.50;99.90;;;;;;10529172;28;20198;-79
2021/06/08 19:52:50;;;;;;;28.47;25.97;;;19.50;99.90;;;;;;10523791;28;20211;-78
2021/06/08 19:57:53;;;;;;;26.70;24.40;;;19.50;99.90;;;;;;10510734;28;20211;-79
2021/06/08 20:02:55;;;;;;;29.37;26.77;;;19.50;99.90;;;;;;10534976;28;20204;-79
2021/06/08 20:07:56;;;;;;;27.57;25.07;;;19.40;99.90;;;;;;10534322;28;20203;-78
2021/06/08 20:13:00;;;;;;;26.13;23.73;;;19.40;99.90;;;;;;10532128;28;20215;-79
2021/06/08 20:18:01;;;;;;;27.33;24.83;;;19.40;99.90;;;;;;10535355;28;20208;-79
2021/06/08 20:23:03;;;;;;;27.90;25.20;;;19.40;99.90;;;;;;10518088;28;20803;-77
2021/06/08 20:28:06;;;;;;;27.27;24.67;;;19.40;99.90;;;;;;10512145;28;20223;-80
2021/06/08 20:33:08;;;;;;;26.47;24.17;;;19.40;99.90;;;;;;10517848;28;20723;-79
2021/06/08 20:38:09;;;;;;;28.00;25.40;;;19.40;99.90;;;;;;10529217;28;20204;-78
2021/06/08 20:43:13;;;;;;;27.80;25.10;;;19.40;99.90;;;;;;10537369;28;20226;-79
2021/06/08 20:48:15;;;;;;;29.50;26.67;;;19.40;99.90;;;;;;10523010;28;20204;-79
2021/06/08 20:53:17;;;;;;;28.10;25.60;;;19.40;99.90;;;;;;10521283;28;20280;-79
2021/06/08 20:58:20;;;;;;;27.43;24.93;;;19.40;99.90;;;;;;10537638;28;20207;-79
2021/06/08 21:03:22;;;;;;;27.40;24.93;;;19.40;99.90;;;;;;10526844;28;20226;-79
2021/06/08 21:08:23;;;;;;;25.63;23.37;;;19.40;99.90;;;;;;10539909;28;20235;-80
2021/06/08 21:13:26;;;;;;;26.60;23.97;;;19.40;99.90;;;;;;10537331;28;20208;-79
2021/06/08 21:18:28;;;;;;;27.40;24.57;;;19.40;99.90;;;;;;10530113;28;20632;-79
2021/06/08 21:23:30;;;;;;;27.40;24.80;;;19.40;99.90;;;;;;10530669;28;20317;-79
2021/06/08 21:28:33;;;;;;;27.83;25.27;;;19.40;99.90;;;;;;10535410;28;20210;-79
2021/06/08 21:33:34;;;;;;;27.50;25.20;;;19.40;99.90;;;;;;10529845;28;20684;-79
2021/06/08 21:38:36;;;;;;;27.67;24.97;;;19.40;99.90;;;;;;10537234;28;20200;-79
2021/06/08 21:43:39;;;;;;;28.33;25.83;;;19.40;99.90;;;;;;10532977;28;20284;-79
2021/06/08 21:48:41;;;;;;;27.00;24.40;;;19.40;99.90;;;;;;10533245;28;20279;-80
2021/06/08 21:53:43;;;;;;;26.00;23.40;;;19.30;99.90;;;;;;10529479;28;20591;-80
2021/06/08 21:58:46;;;;;;;28.07;25.57;;;19.30;99.90;;;;;;10537361;28;20200;-80
2021/06/08 22:03:48;;;;;;;26.27;23.70;;;19.30;99.90;;;;;;10523939;28;20219;-79
2021/06/08 22:08:50;;;;;;;28.40;25.67;;;19.30;99.90;;;;;;10533184;28;20270;-79
2021/06/08 22:13:53;;;;;;;26.00;23.77;;;19.30;99.90;;;;;;10514614;28;20306;-80
2021/06/08 22:18:54;;;;;;;27.23;24.53;;;19.20;99.90;;;;;;10525726;28;20195;-80
2021/06/08 22:23:56;;;;;;;28.60;25.77;;;19.20;99.90;;;;;;10544572;22;20705;-79
2021/06/08 22:28:59;;;;;;;29.00;26.30;;;19.20;99.90;;;;;;10499848;28;20230;-79
2021/06/08 22:34:01;;;;;;;30.47;27.70;;;19.20;99.90;;;;;;10501063;28;20255;-79
2021/06/08 22:39:03;;;;;;;32.80;29.60;;;19.10;99.90;;;;;;10483698;28;20621;-79
2021/06/08 22:44:06;;;;;;;30.60;27.77;;;19.00;99.90;;;;;;10493469;28;20225;-78
2021/06/08 22:49:08;;;;;;;31.30;28.10;;;19.00;99.90;;;;;;10499706;28;20223;-79
2021/06/08 22:54:10;;;;;;;28.97;26.13;;;18.90;99.90;;;;;;10491688;28;20700;-78
2021/06/08 22:59:13;;;;;;;30.17;27.47;;;18.80;99.90;;;;;;10498574;28;20224;-79
2021/06/08 23:04:15;;;;;;;30.20;27.50;;;18.80;99.90;;;;;;10490806;28;20219;-78
2021/06/08 23:09:16;;;;;;;28.00;25.50;;;18.70;99.90;;;;;;10490390;28;20201;-79
2021/06/08 23:14:21;;;;;;;30.03;27.43;;;18.70;99.90;;;;;;10489874;28;20784;-78
2021/06/08 23:19:23;;;;;;;29.40;26.80;;;18.70;99.90;;;;;;10497270;28;20212;-79
2021/06/08 23:24:24;;;;;;;29.47;26.77;;;18.60;99.90;;;;;;10501002;28;20251;-78
2021/06/08 23:29:27;;;;;;;29.97;27.07;;;18.60;99.90;;;;;;10494172;28;20200;-78
2021/06/08 23:34:29;;;;;;;28.70;26.20;;;18.60;99.90;;;;;;10494172;28;20228;-78
2021/06/08 23:39:31;;;;;;;29.93;27.20;;;18.60;99.90;;;;;;10494053;28;20566;-78
2021/06/08 23:44:34;;;;;;;29.90;27.20;;;18.60;99.90;;;;;;10475131;28;20307;-78
2021/06/08 23:49:36;;;;;;;28.33;25.73;;;18.50;99.90;;;;;;10494781;28;20661;-78
2021/06/08 23:54:37;;;;;;;30.00;27.30;;;18.50;99.90;;;;;;10499554;28;20213;-78
2021/06/08 23:59:40;;;;;;;29.47;26.70;;;18.50;99.90;;;;;;10486437;28;20699;-77
